sensor_id;sensor_type;location;lat;lon;timestamp;P1;durP1;ratioP1;P2;durP2;ratioP2
47167;SDS011;32931;47.778;17.806;2024-01-15T00:00:44;86.70;;;47.58;;
47167;SDS011;32931;47.778;17.806;2024-01-15T00:03:10;83.45;;;46.55;;
47167;SDS011;32931;47.778;17.806;2024-01-15T00:05:37;92.80;;;49.35;;
47167;SDS011;32931;47.778;17.806;2024-01-15T00:08:03;93.15;;;50.72;;
47167;SDS011;32931;47.778;17.806;2024-01-15T00:10:30;94.28;;;50.70;;
47167;SDS011;32931;47.778;17.806;2024-01-15T00:12:56;87.72;;;48.25;;
47167;SDS011;32931;47.778;17.806;2024-01-15T00:15:22;89.13;;;49.53;;
47167;SDS011;32931;47.778;17.806;2024-01-15T00:17:48;91.15;;;48.70;;
47167;SDS011;32931;47.778;17.806;2024-01-15T00:20:14;88.28;;;48.08;;
47167;SDS011;32931;47.778;17.806;2024-01-15T00:22:40;90.88;;;48.97;;
47167;SDS011;32931;47.778;17.806;2024-01-15T00:25:06;93.15;;;51.10;;
47167;SDS011;32931;47.778;17.806;2024-01-15T00:27:33;97.90;;;52.38;;
47167;SDS011;32931;47.778;17.806;2024-01-15T00:29:59;94.40;;;53.17;;
47167;SDS011;32931;47.778;17.806;2024-01-15T00:32:25;105.88;;;55.22;;
47167;SDS011;32931;47.778;17.806;2024-01-15T00:34:51;102.75;;;55.10;;
47167;SDS011;32931;47.778;17.806;2024-01-15T00:37:17;104.22;;;56.75;;
47167;SDS011;32931;47.778;17.806;2024-01-15T00:39:43;87.65;;;49.75;;
47167;SDS011;32931;47.778;17.806;2024-01-15T00:42:09;97.10;;;52.08;;
47167;SDS011;32931;47.778;17.806;2024-01-15T00:44:35;95.55;;;52.97;;
47167;SDS011;32931;47.778;17.806;2024-01-15T00:47:01;91.72;;;47.95;;
47167;SDS011;32931;47.778;17.806;2024-01-15T00:49:28;93.35;;;49.13;;
47167;SDS011;32931;47.778;17.806;2024-01-15T00:51:54;93.63;;;52.17;;
47167;SDS011;32931;47.778;17.806;2024-01-15T00:54:20;95.03;;;53.72;;
47167;SDS011;32931;47.778;17.806;2024-01-15T00:56:46;99.93;;;55.92;;
47167;SDS011;32931;47.778;17.806;2024-01-15T00:59:12;103.72;;;54.63;;
47167;SDS011;32931;47.778;17.806;2024-01-15T01:01:41;107.82;;;57.72;;
47167;SDS011;32931;47.778;17.806;2024-01-15T01:04:11;110.57;;;59.58;;
47167;SDS011;32931;47.778;17.806;2024-01-15T01:06:38;104.47;;;56.95;;
47167;SDS011;32931;47.778;17.806;2024-01-15T01:09:04;102.88;;;56.72;;
47167;SDS011;32931;47.778;17.806;2024-01-15T01:11:30;108.55;;;57.25;;
47167;SDS011;32931;47.778;17.806;2024-01-15T01:13:56;109.15;;;57.20;;
47167;SDS011;32931;47.778;17.806;2024-01-15T01:16:23;108.15;;;59.47;;
47167;SDS011;32931;47.778;17.806;2024-01-15T01:18:49;104.90;;;56.97;;
47167;SDS011;32931;47.778;17.806;2024-01-15T01:21:15;108.75;;;58.03;;
47167;SDS011;32931;47.778;17.806;2024-01-15T01:23:42;113.78;;;60.85;;
47167;SDS011;32931;47.778;17.806;2024-01-15T01:26:08;106.25;;;58.38;;
47167;SDS011;32931;47.778;17.806;2024-01-15T01:28:34;112.03;;;59.45;;
47167;SDS011;32931;47.778;17.806;2024-01-15T01:31:00;103.72;;;56.67;;
47167;SDS011;32931;47.778;17.806;2024-01-15T01:33:26;108.32;;;57.55;;
47167;SDS011;32931;47.778;17.806;2024-01-15T01:35:52;103.55;;;56.40;;
47167;SDS011;32931;47.778;17.806;2024-01-15T01:38:18;113.55;;;60.75;;
47167;SDS011;32931;47.778;17.806;2024-01-15T01:40:44;110.10;;;61.25;;
47167;SDS011;32931;47.778;17.806;2024-01-15T01:43:11;107.80;;;58.75;;
47167;SDS011;32931;47.778;17.806;2024-01-15T01:45:37;108.63;;;57.47;;
47167;SDS011;32931;47.778;17.806;2024-01-15T01:48:04;110.53;;;60.85;;
47167;SDS011;32931;47.778;17.806;2024-01-15T01:50:30;116.43;;;62.03;;
47167;SDS011;32931;47.778;17.806;2024-01-15T01:52:57;109.00;;;59.55;;
47167;SDS011;32931;47.778;17.806;2024-01-15T01:55:24;111.78;;;60.10;;
47167;SDS011;32931;47.778;17.806;2024-01-15T01:57:53;116.35;;;62.63;;
47167;SDS011;32931;47.778;17.806;2024-01-15T02:00:20;108.80;;;59.17;;
47167;SDS011;32931;47.778;17.806;2024-01-15T02:02:46;109.78;;;58.70;;
47167;SDS011;32931;47.778;17.806;2024-01-15T02:05:12;104.50;;;58.58;;
47167;SDS011;32931;47.778;17.806;2024-01-15T02:07:43;106.47;;;56.40;;
47167;SDS011;32931;47.778;17.806;2024-01-15T02:10:10;99.28;;;54.88;;
47167;SDS011;32931;47.778;17.806;2024-01-15T02:12:36;103.38;;;57.28;;
47167;SDS011;32931;47.778;17.806;2024-01-15T02:15:02;103.95;;;56.97;;
47167;SDS011;32931;47.778;17.806;2024-01-15T02:17:28;101.45;;;56.25;;
47167;SDS011;32931;47.778;17.806;2024-01-15T02:19:54;101.43;;;56.42;;
47167;SDS011;32931;47.778;17.806;2024-01-15T02:22:21;102.22;;;54.78;;
47167;SDS011;32931;47.778;17.806;2024-01-15T02:24:47;101.93;;;55.45;;
47167;SDS011;32931;47.778;17.806;2024-01-15T02:27:13;100.72;;;54.88;;
47167;SDS011;32931;47.778;17.806;2024-01-15T02:29:39;111.70;;;57.47;;
47167;SDS011;32931;47.778;17.806;2024-01-15T02:32:06;108.40;;;56.72;;
47167;SDS011;32931;47.778;17.806;2024-01-15T02:34:34;113.90;;;60.45;;
47167;SDS011;32931;47.778;17.806;2024-01-15T02:37:00;104.82;;;58.28;;
47167;SDS011;32931;47.778;17.806;2024-01-15T02:39:26;110.78;;;59.53;;
47167;SDS011;32931;47.778;17.806;2024-01-15T02:41:54;106.97;;;58.88;;
47167;SDS011;32931;47.778;17.806;2024-01-15T02:44:23;109.28;;;59.20;;
47167;SDS011;32931;47.778;17.806;2024-01-15T02:46:49;113.47;;;59.63;;
47167;SDS011;32931;47.778;17.806;2024-01-15T02:49:15;106.10;;;56.80;;
47167;SDS011;32931;47.778;17.806;2024-01-15T02:51:41;104.18;;;56.97;;
47167;SDS011;32931;47.778;17.806;2024-01-15T02:54:07;104.43;;;58.70;;
47167;SDS011;32931;47.778;17.806;2024-01-15T02:56:33;99.97;;;54.15;;
47167;SDS011;32931;47.778;17.806;2024-01-15T02:58:59;102.03;;;54.60;;
47167;SDS011;32931;47.778;17.806;2024-01-15T03:01:26;99.72;;;54.00;;
47167;SDS011;32931;47.778;17.806;2024-01-15T03:03:52;106.75;;;54.35;;
47167;SDS011;32931;47.778;17.806;2024-01-15T03:06:18;100.18;;;53.40;;
47167;SDS011;32931;47.778;17.806;2024-01-15T03:08:44;102.85;;;56.55;;
47167;SDS011;32931;47.778;17.806;2024-01-15T03:11:10;97.35;;;54.03;;
47167;SDS011;32931;47.778;17.806;2024-01-15T03:13:36;102.10;;;54.80;;
47167;SDS011;32931;47.778;17.806;2024-01-15T03:16:03;99.47;;;53.95;;
47167;SDS011;32931;47.778;17.806;2024-01-15T03:18:30;97.03;;;54.30;;
47167;SDS011;32931;47.778;17.806;2024-01-15T03:20:56;95.72;;;53.30;;
47167;SDS011;32931;47.778;17.806;2024-01-15T03:23:23;91.75;;;52.67;;
47167;SDS011;32931;47.778;17.806;2024-01-15T03:25:49;95.78;;;51.95;;
47167;SDS011;32931;47.778;17.806;2024-01-15T03:28:15;98.18;;;50.47;;
47167;SDS011;32931;47.778;17.806;2024-01-15T03:30:41;98.65;;;50.95;;
47167;SDS011;32931;47.778;17.806;2024-01-15T03:33:07;94.97;;;52.88;;
47167;SDS011;32931;47.778;17.806;2024-01-15T03:35:33;94.22;;;51.88;;
47167;SDS011;32931;47.778;17.806;2024-01-15T03:37:59;97.20;;;53.65;;
47167;SDS011;32931;47.778;17.806;2024-01-15T03:40:25;93.10;;;54.78;;
47167;SDS011;32931;47.778;17.806;2024-01-15T03:42:51;94.57;;;52.53;;
47167;SDS011;32931;47.778;17.806;2024-01-15T03:45:17;92.25;;;51.03;;
47167;SDS011;32931;47.778;17.806;2024-01-15T03:47:44;89.93;;;50.22;;
47167;SDS011;32931;47.778;17.806;2024-01-15T03:50:10;90.13;;;50.03;;
47167;SDS011;32931;47.778;17.806;2024-01-15T03:52:36;88.95;;;49.38;;
47167;SDS011;32931;47.778;17.806;2024-01-15T03:55:03;83.50;;;48.10;;
47167;SDS011;32931;47.778;17.806;2024-01-15T03:57:29;87.30;;;48.17;;
47167;SDS011;32931;47.778;17.806;2024-01-15T03:59:56;89.03;;;50.63;;
47167;SDS011;32931;47.778;17.806;2024-01-15T04:02:22;87.50;;;48.63;;
47167;SDS011;32931;47.778;17.806;2024-01-15T04:04:48;83.95;;;48.60;;
47167;SDS011;32931;47.778;17.806;2024-01-15T04:07:14;82.38;;;48.20;;
47167;SDS011;32931;47.778;17.806;2024-01-15T04:09:40;85.53;;;49.20;;
47167;SDS011;32931;47.778;17.806;2024-01-15T04:12:06;84.75;;;48.55;;
47167;SDS011;32931;47.778;17.806;2024-01-15T04:14:32;89.18;;;48.80;;
47167;SDS011;32931;47.778;17.806;2024-01-15T04:16:58;89.13;;;50.67;;
47167;SDS011;32931;47.778;17.806;2024-01-15T04:19:24;90.90;;;50.63;;
47167;SDS011;32931;47.778;17.806;2024-01-15T04:21:51;85.10;;;49.53;;
47167;SDS011;32931;47.778;17.806;2024-01-15T04:24:17;94.80;;;51.38;;
47167;SDS011;32931;47.778;17.806;2024-01-15T04:26:43;88.80;;;53.25;;
47167;SDS011;32931;47.778;17.806;2024-01-15T04:29:09;93.55;;;51.17;;
47167;SDS011;32931;47.778;17.806;2024-01-15T04:31:35;95.70;;;53.92;;
47167;SDS011;32931;47.778;17.806;2024-01-15T04:34:02;97.00;;;53.80;;
47167;SDS011;32931;47.778;17.806;2024-01-15T04:36:28;94.35;;;52.88;;
47167;SDS011;32931;47.778;17.806;2024-01-15T04:38:54;93.32;;;54.00;;
47167;SDS011;32931;47.778;17.806;2024-01-15T04:41:20;95.35;;;54.03;;
47167;SDS011;32931;47.778;17.806;2024-01-15T04:43:46;95.13;;;53.50;;
47167;SDS011;32931;47.778;17.806;2024-01-15T04:46:12;97.88;;;54.45;;
47167;SDS011;32931;47.778;17.806;2024-01-15T04:48:38;98.05;;;55.15;;
47167;SDS011;32931;47.778;17.806;2024-01-15T04:51:05;92.80;;;54.13;;
47167;SDS011;32931;47.778;17.806;2024-01-15T04:53:32;98.20;;;54.70;;
47167;SDS011;32931;47.778;17.806;2024-01-15T04:56:00;94.65;;;54.63;;
47167;SDS011;32931;47.778;17.806;2024-01-15T04:58:26;93.63;;;55.25;;
47167;SDS011;32931;47.778;17.806;2024-01-15T05:00:52;97.82;;;55.13;;
47167;SDS011;32931;47.778;17.806;2024-01-15T05:03:19;102.68;;;57.03;;
47167;SDS011;32931;47.778;17.806;2024-01-15T05:05:46;94.32;;;53.65;;
47167;SDS011;32931;47.778;17.806;2024-01-15T05:08:12;97.57;;;55.20;;
47167;SDS011;32931;47.778;17.806;2024-01-15T05:10:38;97.13;;;55.00;;
47167;SDS011;32931;47.778;17.806;2024-01-15T05:13:04;107.38;;;56.92;;
47167;SDS011;32931;47.778;17.806;2024-01-15T05:15:30;100.07;;;57.17;;
47167;SDS011;32931;47.778;17.806;2024-01-15T05:17:56;104.53;;;59.33;;
47167;SDS011;32931;47.778;17.806;2024-01-15T05:20:22;99.60;;;58.10;;
47167;SDS011;32931;47.778;17.806;2024-01-15T05:22:48;98.95;;;57.00;;
47167;SDS011;32931;47.778;17.806;2024-01-15T05:25:14;101.10;;;59.03;;
47167;SDS011;32931;47.778;17.806;2024-01-15T05:27:40;106.03;;;59.00;;
47167;SDS011;32931;47.778;17.806;2024-01-15T05:30:07;102.32;;;58.00;;
47167;SDS011;32931;47.778;17.806;2024-01-15T05:32:33;103.60;;;58.15;;
47167;SDS011;32931;47.778;17.806;2024-01-15T05:34:59;109.18;;;60.80;;
47167;SDS011;32931;47.778;17.806;2024-01-15T05:37:25;106.57;;;59.47;;
47167;SDS011;32931;47.778;17.806;2024-01-15T05:39:51;107.47;;;60.83;;
47167;SDS011;32931;47.778;17.806;2024-01-15T05:42:18;104.68;;;59.42;;
47167;SDS011;32931;47.778;17.806;2024-01-15T05:44:44;105.03;;;59.90;;
47167;SDS011;32931;47.778;17.806;2024-01-15T05:47:10;107.13;;;58.85;;
47167;SDS011;32931;47.778;17.806;2024-01-15T05:49:36;116.43;;;64.97;;
47167;SDS011;32931;47.778;17.806;2024-01-15T05:52:02;111.90;;;64.45;;
47167;SDS011;32931;47.778;17.806;2024-01-15T05:54:29;112.65;;;64.85;;
47167;SDS011;32931;47.778;17.806;2024-01-15T05:56:55;112.82;;;61.40;;
47167;SDS011;32931;47.778;17.806;2024-01-15T05:59:21;112.22;;;61.50;;
47167;SDS011;32931;47.778;17.806;2024-01-15T06:01:47;112.70;;;64.05;;
47167;SDS011;32931;47.778;17.806;2024-01-15T06:04:13;106.10;;;59.35;;
47167;SDS011;32931;47.778;17.806;2024-01-15T06:06:39;110.22;;;61.33;;
47167;SDS011;32931;47.778;17.806;2024-01-15T06:09:05;104.35;;;59.40;;
47167;SDS011;32931;47.778;17.806;2024-01-15T06:11:32;104.38;;;59.42;;
47167;SDS011;32931;47.778;17.806;2024-01-15T06:13:58;106.20;;;61.58;;
47167;SDS011;32931;47.778;17.806;2024-01-15T06:16:25;103.50;;;60.97;;
47167;SDS011;32931;47.778;17.806;2024-01-15T06:18:52;104.57;;;61.13;;
47167;SDS011;32931;47.778;17.806;2024-01-15T06:21:18;109.30;;;60.28;;
47167;SDS011;32931;47.778;17.806;2024-01-15T06:23:44;113.80;;;61.25;;
47167;SDS011;32931;47.778;17.806;2024-01-15T06:26:13;101.00;;;58.72;;
47167;SDS011;32931;47.778;17.806;2024-01-15T06:28:39;98.55;;;57.08;;
47167;SDS011;32931;47.778;17.806;2024-01-15T06:31:08;103.00;;;58.22;;
47167;SDS011;32931;47.778;17.806;2024-01-15T06:33:34;103.22;;;56.83;;
47167;SDS011;32931;47.778;17.806;2024-01-15T06:36:00;100.50;;;56.90;;
47167;SDS011;32931;47.778;17.806;2024-01-15T06:38:26;98.30;;;54.75;;
47167;SDS011;32931;47.778;17.806;2024-01-15T06:40:53;102.68;;;57.42;;
47167;SDS011;32931;47.778;17.806;2024-01-15T06:43:19;100.07;;;54.60;;
47167;SDS011;32931;47.778;17.806;2024-01-15T06:45:45;97.22;;;52.80;;
47167;SDS011;32931;47.778;17.806;2024-01-15T06:48:11;89.65;;;50.95;;
47167;SDS011;32931;47.778;17.806;2024-01-15T06:50:44;90.05;;;50.47;;
47167;SDS011;32931;47.778;17.806;2024-01-15T06:53:11;100.28;;;54.22;;
47167;SDS011;32931;47.778;17.806;2024-01-15T06:55:37;93.55;;;52.28;;
47167;SDS011;32931;47.778;17.806;2024-01-15T06:58:04;94.03;;;52.45;;
47167;SDS011;32931;47.778;17.806;2024-01-15T07:00:30;86.57;;;51.13;;
47167;SDS011;32931;47.778;17.806;2024-01-15T07:02:56;86.28;;;46.70;;
47167;SDS011;32931;47.778;17.806;2024-01-15T07:05:23;87.00;;;47.60;;
47167;SDS011;32931;47.778;17.806;2024-01-15T07:07:49;82.63;;;46.95;;
47167;SDS011;32931;47.778;17.806;2024-01-15T07:10:15;85.95;;;48.50;;
47167;SDS011;32931;47.778;17.806;2024-01-15T07:12:42;85.82;;;47.25;;
47167;SDS011;32931;47.778;17.806;2024-01-15T07:15:09;82.70;;;45.63;;
47167;SDS011;32931;47.778;17.806;2024-01-15T07:17:36;83.47;;;45.33;;
47167;SDS011;32931;47.778;17.806;2024-01-15T07:20:07;77.18;;;41.63;;
47167;SDS011;32931;47.778;17.806;2024-01-15T07:22:37;71.95;;;39.22;;
47167;SDS011;32931;47.778;17.806;2024-01-15T07:25:04;64.13;;;36.80;;
47167;SDS011;32931;47.778;17.806;2024-01-15T07:27:31;59.70;;;33.42;;
47167;SDS011;32931;47.778;17.806;2024-01-15T07:29:57;60.47;;;34.10;;
47167;SDS011;32931;47.778;17.806;2024-01-15T07:32:24;60.83;;;33.72;;
47167;SDS011;32931;47.778;17.806;2024-01-15T07:34:50;60.78;;;33.67;;
47167;SDS011;32931;47.778;17.806;2024-01-15T07:37:16;56.30;;;33.35;;
47167;SDS011;32931;47.778;17.806;2024-01-15T07:39:42;59.33;;;33.97;;
47167;SDS011;32931;47.778;17.806;2024-01-15T07:42:09;68.22;;;34.58;;
47167;SDS011;32931;47.778;17.806;2024-01-15T07:44:35;65.93;;;34.83;;
47167;SDS011;32931;47.778;17.806;2024-01-15T07:47:01;61.83;;;35.78;;
47167;SDS011;32931;47.778;17.806;2024-01-15T07:49:29;66.22;;;36.35;;
47167;SDS011;32931;47.778;17.806;2024-01-15T07:51:55;55.22;;;33.28;;
47167;SDS011;32931;47.778;17.806;2024-01-15T07:54:21;61.72;;;33.03;;
47167;SDS011;32931;47.778;17.806;2024-01-15T07:56:59;65.20;;;33.05;;
47167;SDS011;32931;47.778;17.806;2024-01-15T07:59:28;62.25;;;33.00;;
47167;SDS011;32931;47.778;17.806;2024-01-15T08:01:54;52.97;;;27.95;;
47167;SDS011;32931;47.778;17.806;2024-01-15T08:04:20;37.83;;;21.50;;
47167;SDS011;32931;47.778;17.806;2024-01-15T08:06:50;35.38;;;19.08;;
47167;SDS011;32931;47.778;17.806;2024-01-15T08:09:16;25.95;;;15.07;;
47167;SDS011;32931;47.778;17.806;2024-01-15T08:11:42;22.23;;;13.15;;
47167;SDS011;32931;47.778;17.806;2024-01-15T08:14:09;20.95;;;10.50;;
47167;SDS011;32931;47.778;17.806;2024-01-15T08:16:36;9.50;;;4.95;;
47167;SDS011;32931;47.778;17.806;2024-01-15T08:19:03;11.63;;;4.22;;
47167;SDS011;32931;47.778;17.806;2024-01-15T08:21:29;6.35;;;3.97;;
47167;SDS011;32931;47.778;17.806;2024-01-15T08:24:00;8.85;;;4.57;;
47167;SDS011;32931;47.778;17.806;2024-01-15T08:26:30;12.40;;;4.57;;
47167;SDS011;32931;47.778;17.806;2024-01-15T08:28:57;12.63;;;5.32;;
47167;SDS011;32931;47.778;17.806;2024-01-15T08:31:24;10.45;;;5.65;;
47167;SDS011;32931;47.778;17.806;2024-01-15T08:33:50;15.73;;;6.03;;
47167;SDS011;32931;47.778;17.806;2024-01-15T08:36:16;19.90;;;6.50;;
47167;SDS011;32931;47.778;17.806;2024-01-15T08:38:42;12.98;;;6.13;;
47167;SDS011;32931;47.778;17.806;2024-01-15T08:41:08;12.50;;;6.50;;
47167;SDS011;32931;47.778;17.806;2024-01-15T08:43:34;13.98;;;5.93;;
47167;SDS011;32931;47.778;17.806;2024-01-15T08:46:01;12.18;;;6.40;;
47167;SDS011;32931;47.778;17.806;2024-01-15T08:48:28;11.65;;;5.72;;
47167;SDS011;32931;47.778;17.806;2024-01-15T08:50:54;12.35;;;5.88;;
47167;SDS011;32931;47.778;17.806;2024-01-15T08:53:21;10.57;;;6.00;;
47167;SDS011;32931;47.778;17.806;2024-01-15T08:55:47;10.32;;;5.55;;
47167;SDS011;32931;47.778;17.806;2024-01-15T08:58:13;9.63;;;5.63;;
47167;SDS011;32931;47.778;17.806;2024-01-15T09:00:40;9.85;;;5.75;;
47167;SDS011;32931;47.778;17.806;2024-01-15T09:03:06;12.93;;;5.97;;
47167;SDS011;32931;47.778;17.806;2024-01-15T09:05:33;10.05;;;6.03;;
47167;SDS011;32931;47.778;17.806;2024-01-15T09:08:00;10.40;;;6.30;;
47167;SDS011;32931;47.778;17.806;2024-01-15T09:10:26;10.57;;;6.00;;
47167;SDS011;32931;47.778;17.806;2024-01-15T09:12:52;11.02;;;6.47;;
47167;SDS011;32931;47.778;17.806;2024-01-15T09:15:18;11.73;;;6.18;;
47167;SDS011;32931;47.778;17.806;2024-01-15T09:17:45;9.80;;;5.88;;
47167;SDS011;32931;47.778;17.806;2024-01-15T09:20:11;11.07;;;5.75;;
47167;SDS011;32931;47.778;17.806;2024-01-15T09:22:38;11.60;;;5.50;;
47167;SDS011;32931;47.778;17.806;2024-01-15T09:25:07;13.63;;;5.93;;
47167;SDS011;32931;47.778;17.806;2024-01-15T09:27:36;8.55;;;5.03;;
47167;SDS011;32931;47.778;17.806;2024-01-15T09:30:03;13.45;;;5.53;;
47167;SDS011;32931;47.778;17.806;2024-01-15T09:32:30;10.00;;;5.50;;
47167;SDS011;32931;47.778;17.806;2024-01-15T09:34:58;9.70;;;5.57;;
47167;SDS011;32931;47.778;17.806;2024-01-15T09:37:24;9.85;;;5.25;;
47167;SDS011;32931;47.778;17.806;2024-01-15T09:39:50;8.77;;;5.63;;
47167;SDS011;32931;47.778;17.806;2024-01-15T09:42:17;9.60;;;5.35;;
47167;SDS011;32931;47.778;17.806;2024-01-15T09:44:43;11.48;;;5.38;;
47167;SDS011;32931;47.778;17.806;2024-01-15T09:47:11;9.32;;;5.25;;
47167;SDS011;32931;47.778;17.806;2024-01-15T09:49:38;13.85;;;5.15;;
47167;SDS011;32931;47.778;17.806;2024-01-15T09:52:06;17.05;;;4.45;;
47167;SDS011;32931;47.778;17.806;2024-01-15T09:54:33;8.63;;;4.60;;
47167;SDS011;32931;47.778;17.806;2024-01-15T09:57:00;8.73;;;4.97;;
47167;SDS011;32931;47.778;17.806;2024-01-15T09:59:26;8.15;;;4.68;;
47167;SDS011;32931;47.778;17.806;2024-01-15T10:01:54;7.60;;;4.20;;
47167;SDS011;32931;47.778;17.806;2024-01-15T10:04:22;8.05;;;3.92;;
47167;SDS011;32931;47.778;17.806;2024-01-15T10:06:50;8.07;;;3.95;;
47167;SDS011;32931;47.778;17.806;2024-01-15T10:09:17;13.23;;;3.90;;
47167;SDS011;32931;47.778;17.806;2024-01-15T10:11:44;9.32;;;3.83;;
47167;SDS011;32931;47.778;17.806;2024-01-15T10:14:11;7.70;;;3.53;;
47167;SDS011;32931;47.778;17.806;2024-01-15T10:16:41;8.18;;;3.83;;
47167;SDS011;32931;47.778;17.806;2024-01-15T10:19:08;6.88;;;3.40;;
47167;SDS011;32931;47.778;17.806;2024-01-15T10:21:35;9.40;;;3.10;;
47167;SDS011;32931;47.778;17.806;2024-01-15T10:24:01;7.22;;;2.92;;
47167;SDS011;32931;47.778;17.806;2024-01-15T10:26:29;8.55;;;3.35;;
47167;SDS011;32931;47.778;17.806;2024-01-15T10:28:56;5.53;;;2.88;;
47167;SDS011;32931;47.778;17.806;2024-01-15T10:31:25;5.13;;;2.88;;
47167;SDS011;32931;47.778;17.806;2024-01-15T10:33:51;4.82;;;2.85;;
47167;SDS011;32931;47.778;17.806;2024-01-15T10:36:18;8.68;;;3.22;;
47167;SDS011;32931;47.778;17.806;2024-01-15T10:38:44;6.43;;;2.95;;
47167;SDS011;32931;47.778;17.806;2024-01-15T10:41:11;14.02;;;2.70;;
47167;SDS011;32931;47.778;17.806;2024-01-15T10:43:39;4.38;;;2.40;;
47167;SDS011;32931;47.778;17.806;2024-01-15T10:46:08;4.32;;;2.38;;
47167;SDS011;32931;47.778;17.806;2024-01-15T10:48:36;10.88;;;2.80;;
47167;SDS011;32931;47.778;17.806;2024-01-15T10:51:02;3.97;;;2.47;;
47167;SDS011;32931;47.778;17.806;2024-01-15T10:53:39;4.55;;;2.47;;
47167;SDS011;32931;47.778;17.806;2024-01-15T10:56:07;4.30;;;2.42;;
47167;SDS011;32931;47.778;17.806;2024-01-15T10:58:35;3.97;;;2.10;;
47167;SDS011;32931;47.778;17.806;2024-01-15T11:01:03;4.43;;;2.33;;
47167;SDS011;32931;47.778;17.806;2024-01-15T11:03:30;6.75;;;2.20;;
47167;SDS011;32931;47.778;17.806;2024-01-15T11:05:56;14.15;;;3.70;;
47167;SDS011;32931;47.778;17.806;2024-01-15T11:08:23;9.35;;;2.78;;
47167;SDS011;32931;47.778;17.806;2024-01-15T11:10:50;3.53;;;1.95;;
47167;SDS011;32931;47.778;17.806;2024-01-15T11:13:21;10.40;;;2.50;;
47167;SDS011;32931;47.778;17.806;2024-01-15T11:18:42;5.18;;;2.00;;
47167;SDS011;32931;47.778;17.806;2024-01-15T11:21:27;4.68;;;2.60;;
47167;SDS011;32931;47.778;17.806;2024-01-15T11:24:01;6.82;;;2.25;;
47167;SDS011;32931;47.778;17.806;2024-01-15T11:29:10;6.30;;;3.00;;
47167;SDS011;32931;47.778;17.806;2024-01-15T11:34:21;3.88;;;2.30;;
47167;SDS011;32931;47.778;17.806;2024-01-15T11:37:08;5.57;;;2.70;;
47167;SDS011;32931;47.778;17.806;2024-01-15T11:39:41;4.07;;;2.38;;
47167;SDS011;32931;47.778;17.806;2024-01-15T11:42:12;6.45;;;2.83;;
47167;SDS011;32931;47.778;17.806;2024-01-15T11:44:39;4.30;;;2.55;;
47167;SDS011;32931;47.778;17.806;2024-01-15T11:47:07;6.72;;;2.65;;
47167;SDS011;32931;47.778;17.806;2024-01-15T11:52:06;5.80;;;2.75;;
47167;SDS011;32931;47.778;17.806;2024-01-15T11:54:37;5.60;;;2.85;;
47167;SDS011;32931;47.778;17.806;2024-01-15T11:57:09;5.40;;;2.40;;
47167;SDS011;32931;47.778;17.806;2024-01-15T11:59:44;4.72;;;2.35;;
47167;SDS011;32931;47.778;17.806;2024-01-15T12:02:10;5.10;;;2.72;;
47167;SDS011;32931;47.778;17.806;2024-01-15T12:04:38;4.68;;;2.53;;
47167;SDS011;32931;47.778;17.806;2024-01-15T12:07:05;5.10;;;2.50;;
47167;SDS011;32931;47.778;17.806;2024-01-15T12:09:31;5.25;;;2.47;;
47167;SDS011;32931;47.778;17.806;2024-01-15T12:12:03;7.22;;;3.22;;
47167;SDS011;32931;47.778;17.806;2024-01-15T12:14:36;5.35;;;3.00;;
47167;SDS011;32931;47.778;17.806;2024-01-15T12:17:03;7.32;;;2.90;;
47167;SDS011;32931;47.778;17.806;2024-01-15T12:19:30;7.07;;;2.92;;
47167;SDS011;32931;47.778;17.806;2024-01-15T12:21:56;3.88;;;2.47;;
47167;SDS011;32931;47.778;17.806;2024-01-15T12:24:22;4.43;;;2.65;;
47167;SDS011;32931;47.778;17.806;2024-01-15T12:26:48;4.57;;;2.70;;
47167;SDS011;32931;47.778;17.806;2024-01-15T12:29:17;4.75;;;2.60;;
47167;SDS011;32931;47.778;17.806;2024-01-15T12:31:46;4.78;;;2.85;;
47167;SDS011;32931;47.778;17.806;2024-01-15T12:34:13;6.88;;;2.40;;
47167;SDS011;32931;47.778;17.806;2024-01-15T12:36:40;63.05;;;3.78;;
47167;SDS011;32931;47.778;17.806;2024-01-15T12:39:11;5.03;;;2.35;;
47167;SDS011;32931;47.778;17.806;2024-01-15T12:41:37;5.97;;;2.88;;
47167;SDS011;32931;47.778;17.806;2024-01-15T12:44:04;5.40;;;2.85;;
47167;SDS011;32931;47.778;17.806;2024-01-15T12:46:30;5.75;;;3.10;;
47167;SDS011;32931;47.778;17.806;2024-01-15T12:48:57;4.95;;;3.00;;
47167;SDS011;32931;47.778;17.806;2024-01-15T12:51:26;4.43;;;2.70;;
47167;SDS011;32931;47.778;17.806;2024-01-15T12:53:52;5.05;;;2.65;;
47167;SDS011;32931;47.778;17.806;2024-01-15T12:56:19;4.07;;;2.55;;
47167;SDS011;32931;47.778;17.806;2024-01-15T12:58:46;6.05;;;3.33;;
47167;SDS011;32931;47.778;17.806;2024-01-15T13:01:12;5.15;;;2.92;;
47167;SDS011;32931;47.778;17.806;2024-01-15T13:03:38;4.60;;;3.03;;
47167;SDS011;32931;47.778;17.806;2024-01-15T13:06:04;7.15;;;3.10;;
47167;SDS011;32931;47.778;17.806;2024-01-15T13:08:30;7.78;;;3.05;;
47167;SDS011;32931;47.778;17.806;2024-01-15T13:10:57;6.28;;;3.00;;
47167;SDS011;32931;47.778;17.806;2024-01-15T13:13:23;4.38;;;2.90;;
47167;SDS011;32931;47.778;17.806;2024-01-15T13:15:49;4.45;;;2.67;;
47167;SDS011;32931;47.778;17.806;2024-01-15T13:18:15;6.97;;;2.95;;
47167;SDS011;32931;47.778;17.806;2024-01-15T13:20:41;4.28;;;2.38;;
47167;SDS011;32931;47.778;17.806;2024-01-15T13:23:07;5.90;;;2.78;;
47167;SDS011;32931;47.778;17.806;2024-01-15T13:25:35;4.13;;;2.42;;
47167;SDS011;32931;47.778;17.806;2024-01-15T13:28:04;6.70;;;2.97;;
47167;SDS011;32931;47.778;17.806;2024-01-15T13:30:31;4.03;;;2.53;;
47167;SDS011;32931;47.778;17.806;2024-01-15T13:32:57;6.35;;;2.10;;
47167;SDS011;32931;47.778;17.806;2024-01-15T13:35:29;8.80;;;2.40;;
47167;SDS011;32931;47.778;17.806;2024-01-15T13:37:55;9.43;;;2.50;;
47167;SDS011;32931;47.778;17.806;2024-01-15T13:40:21;4.00;;;2.28;;
47167;SDS011;32931;47.778;17.806;2024-01-15T13:42:47;4.80;;;2.55;;
47167;SDS011;32931;47.778;17.806;2024-01-15T13:45:14;3.97;;;2.38;;
47167;SDS011;32931;47.778;17.806;2024-01-15T13:47:40;4.53;;;2.53;;
47167;SDS011;32931;47.778;17.806;2024-01-15T13:50:09;5.70;;;2.17;;
47167;SDS011;32931;47.778;17.806;2024-01-15T13:52:35;6.70;;;2.53;;
47167;SDS011;32931;47.778;17.806;2024-01-15T13:55:01;8.35;;;2.63;;
47167;SDS011;32931;47.778;17.806;2024-01-15T13:57:27;3.75;;;2.28;;
47167;SDS011;32931;47.778;17.806;2024-01-15T13:59:53;6.70;;;1.98;;
47167;SDS011;32931;47.778;17.806;2024-01-15T14:02:20;6.22;;;2.00;;
47167;SDS011;32931;47.778;17.806;2024-01-15T14:04:47;4.18;;;2.03;;
47167;SDS011;32931;47.778;17.806;2024-01-15T14:07:13;5.65;;;2.05;;
47167;SDS011;32931;47.778;17.806;2024-01-15T14:09:40;3.65;;;1.90;;
47167;SDS011;32931;47.778;17.806;2024-01-15T14:12:07;5.28;;;2.38;;
47167;SDS011;32931;47.778;17.806;2024-01-15T14:14:33;3.15;;;1.77;;
47167;SDS011;32931;47.778;17.806;2024-01-15T14:16:59;4.60;;;1.73;;
47167;SDS011;32931;47.778;17.806;2024-01-15T14:19:25;4.55;;;1.83;;
47167;SDS011;32931;47.778;17.806;2024-01-15T14:21:52;3.63;;;2.03;;
47167;SDS011;32931;47.778;17.806;2024-01-15T14:24:18;4.28;;;1.98;;